sensor_id;sensor_type;location;lat;lon;timestamp;pressure;altitude;pressure_sealevel;temperature;humidity
79686;BME280;69153;47.918;11.428;2023-12-28T00:02:12;95406.44;;;4.18;53.01
79686;BME280;69153;47.918;11.428;2023-12-28T00:04:38;95400.78;;;4.09;52.76
79686;BME280;69153;47.918;11.428;2023-12-28T00:07:04;95400.38;;;4.03;53.09
79686;BME280;69153;47.918;11.428;2023-12-28T00:09:29;95398.16;;;4.02;53.05
79686;BME280;69153;47.918;11.428;2023-12-28T00:11:55;95392.56;;;4.10;53.03
79686;BME280;69153;47.918;11.428;2023-12-28T00:14:20;95393.34;;;4.14;53.12
79686;BME280;69153;47.918;11.428;2023-12-28T00:16:46;95400.00;;;3.98;53.39
79686;BME280;69153;47.918;11.428;2023-12-28T00:19:11;95399.25;;;3.97;53.24
79686;BME280;69153;47.918;11.428;2023-12-28T00:21:37;95389.53;;;3.98;53.44
79686;BME280;69153;47.918;11.428;2023-12-28T00:24:02;95387.28;;;4.03;52.71
79686;BME280;69153;47.918;11.428;2023-12-28T00:26:28;95387.28;;;4.00;52.68
79686;BME280;69153;47.918;11.428;2023-12-28T00:28:54;95380.94;;;4.01;53.04
79686;BME280;69153;47.918;11.428;2023-12-28T00:31:19;95385.38;;;3.93;53.24
79686;BME280;69153;47.918;11.428;2023-12-28T00:33:44;95386.50;;;3.88;52.92
79686;BME280;69153;47.918;11.428;2023-12-28T00:36:10;95399.84;;;3.62;54.33
79686;BME280;69153;47.918;11.428;2023-12-28T00:38:35;95394.50;;;3.48;55.02
79686;BME280;69153;47.918;11.428;2023-12-28T00:41:01;95392.69;;;3.59;55.62
79686;BME280;69153;47.918;11.428;2023-12-28T00:43:26;95404.00;;;3.77;54.10
79686;BME280;69153;47.918;11.428;2023-12-28T00:45:52;95397.72;;;3.89;53.50
79686;BME280;69153;47.918;11.428;2023-12-28T00:48:17;95408.63;;;4.02;53.30
79686;BME280;69153;47.918;11.428;2023-12-28T00:50:42;95401.84;;;3.93;53.28
79686;BME280;69153;47.918;11.428;2023-12-28T00:53:08;95404.84;;;3.95;53.77
79686;BME280;69153;47.918;11.428;2023-12-28T00:55:33;95394.03;;;4.01;54.17
79686;BME280;69153;47.918;11.428;2023-12-28T00:57:59;95392.88;;;3.98;53.30
79686;BME280;69153;47.918;11.428;2023-12-28T01:00:24;95385.03;;;3.98;53.06
79686;BME280;69153;47.918;11.428;2023-12-28T01:02:50;95389.47;;;3.90;53.82
79686;BME280;69153;47.918;11.428;2023-12-28T01:05:16;95395.75;;;3.72;54.30
79686;BME280;69153;47.918;11.428;2023-12-28T01:07:42;95402.47;;;3.69;54.39
79686;BME280;69153;47.918;11.428;2023-12-28T01:10:07;95398.00;;;3.15;55.59
79686;BME280;69153;47.918;11.428;2023-12-28T01:12:33;95407.53;;;3.37;54.86
79686;BME280;69153;47.918;11.428;2023-12-28T01:14:58;95409.50;;;3.54;53.68
79686;BME280;69153;47.918;11.428;2023-12-28T01:17:24;95404.19;;;3.44;54.35
79686;BME280;69153;47.918;11.428;2023-12-28T01:19:49;95414.34;;;3.52;54.13
79686;BME280;69153;47.918;11.428;2023-12-28T01:22:15;95423.78;;;3.64;53.71
79686;BME280;69153;47.918;11.428;2023-12-28T01:24:40;95435.78;;;3.69;53.85
79686;BME280;69153;47.918;11.428;2023-12-28T01:27:06;95433.19;;;3.72;54.28
79686;BME280;69153;47.918;11.428;2023-12-28T01:29:31;95433.59;;;3.74;53.52
79686;BME280;69153;47.918;11.428;2023-12-28T01:31:58;95447.44;;;3.75;54.24
79686;BME280;69153;47.918;11.428;2023-12-28T01:34:23;95437.38;;;3.84;53.53
79686;BME280;69153;47.918;11.428;2023-12-28T01:36:49;95434.72;;;3.80;54.46
79686;BME280;69153;47.918;11.428;2023-12-28T01:39:14;95435.44;;;3.74;54.03
79686;BME280;69153;47.918;11.428;2023-12-28T01:41:41;95438.09;;;3.81;53.42
79686;BME280;69153;47.918;11.428;2023-12-28T01:44:06;95435.91;;;3.93;53.50
79686;BME280;69153;47.918;11.428;2023-12-28T01:46:33;95446.44;;;3.97;53.24
79686;BME280;69153;47.918;11.428;2023-12-28T01:49:00;95444.59;;;4.01;52.73
79686;BME280;69153;47.918;11.428;2023-12-28T01:51:26;95457.31;;;3.99;52.47
79686;BME280;69153;47.918;11.428;2023-12-28T01:53:53;95462.16;;;3.97;52.89
79686;BME280;69153;47.918;11.428;2023-12-28T01:56:20;95453.16;;;3.94;52.83
79686;BME280;69153;47.918;11.428;2023-12-28T01:58:49;95455.38;;;3.89;52.77
79686;BME280;69153;47.918;11.428;2023-12-28T02:01:14;95457.19;;;3.81;52.67
79686;BME280;69153;47.918;11.428;2023-12-28T02:03:41;95451.59;;;3.83;52.51
79686;BME280;69153;47.918;11.428;2023-12-28T02:06:07;95448.88;;;3.69;53.18
79686;BME280;69153;47.918;11.428;2023-12-28T02:08:32;95441.22;;;3.42;53.88
79686;BME280;69153;47.918;11.428;2023-12-28T02:10:58;95450.97;;;3.45;54.36
79686;BME280;69153;47.918;11.428;2023-12-28T02:13:25;95448.03;;;3.54;53.56
79686;BME280;69153;47.918;11.428;2023-12-28T02:15:57;95437.56;;;3.54;53.68
79686;BME280;69153;47.918;11.428;2023-12-28T02:18:31;95441.31;;;3.56;52.64
79686;BME280;69153;47.918;11.428;2023-12-28T02:21:02;95439.84;;;3.59;53.03
79686;BME280;69153;47.918;11.428;2023-12-28T02:23:28;95449.22;;;3.60;53.60
79686;BME280;69153;47.918;11.428;2023-12-28T02:25:53;95447.34;;;3.61;53.30
79686;BME280;69153;47.918;11.428;2023-12-28T02:28:19;95436.75;;;2.99;55.81
79686;BME280;69153;47.918;11.428;2023-12-28T02:30:45;95449.25;;;3.16;54.63
79686;BME280;69153;47.918;11.428;2023-12-28T02:33:18;95439.31;;;3.39;54.22
79686;BME280;69153;47.918;11.428;2023-12-28T02:35:52;95439.03;;;3.51;54.24
79686;BME280;69153;47.918;11.428;2023-12-28T02:38:23;95447.31;;;3.57;53.55
79686;BME280;69153;47.918;11.428;2023-12-28T02:40:50;95443.19;;;3.56;52.58
79686;BME280;69153;47.918;11.428;2023-12-28T02:43:16;95443.53;;;3.51;53.26
79686;BME280;69153;47.918;11.428;2023-12-28T02:45:42;95437.94;;;3.56;53.22
79686;BME280;69153;47.918;11.428;2023-12-28T02:48:07;95442.44;;;3.55;52.65
79686;BME280;69153;47.918;11.428;2023-12-28T02:50:34;95445.06;;;3.55;52.32
79686;BME280;69153;47.918;11.428;2023-12-28T02:53:00;95441.28;;;3.49;53.38
79686;BME280;69153;47.918;11.428;2023-12-28T02:55:26;95438.63;;;3.46;53.16
79686;BME280;69153;47.918;11.428;2023-12-28T02:57:53;95430.38;;;3.44;53.39
79686;BME280;69153;47.918;11.428;2023-12-28T03:00:24;95433.72;;;3.41;53.69
79686;BME280;69153;47.918;11.428;2023-12-28T03:02:50;95445.31;;;3.36;53.50
79686;BME280;69153;47.918;11.428;2023-12-28T03:05:16;95444.16;;;3.34;53.74
79686;BME280;69153;47.918;11.428;2023-12-28T03:07:41;95447.53;;;3.34;53.81
79686;BME280;69153;47.918;11.428;2023-12-28T03:10:08;95434.84;;;3.40;53.20
79686;BME280;69153;47.918;11.428;2023-12-28T03:12:33;95445.38;;;3.47;53.24
79686;BME280;69153;47.918;11.428;2023-12-28T03:14:59;95449.13;;;3.46;53.47
79686;BME280;69153;47.918;11.428;2023-12-28T03:17:24;95453.56;;;3.42;52.86
79686;BME280;69153;47.918;11.428;2023-12-28T03:19:50;95457.97;;;3.31;53.01
79686;BME280;69153;47.918;11.428;2023-12-28T03:22:15;95456.06;;;3.24;53.37
79686;BME280;69153;47.918;11.428;2023-12-28T03:24:42;95455.59;;;3.15;53.10
79686;BME280;69153;47.918;11.428;2023-12-28T03:27:08;95456.31;;;3.12;52.82
79686;BME280;69153;47.918;11.428;2023-12-28T03:29:34;95449.19;;;3.09;52.76
79686;BME280;69153;47.918;11.428;2023-12-28T03:31:59;95459.91;;;2.93;53.30
79686;BME280;69153;47.918;11.428;2023-12-28T03:34:26;95469.88;;;2.80;53.15
79686;BME280;69153;47.918;11.428;2023-12-28T03:36:52;95457.59;;;2.88;53.17
79686;BME280;69153;47.918;11.428;2023-12-28T03:39:18;95462.88;;;2.92;52.36
79686;BME280;69153;47.918;11.428;2023-12-28T03:41:43;95464.34;;;2.89;52.44
79686;BME280;69153;47.918;11.428;2023-12-28T03:44:08;95453.09;;;2.85;52.88
79686;BME280;69153;47.918;11.428;2023-12-28T03:46:34;95452.81;;;2.94;53.04
79686;BME280;69153;47.918;11.428;2023-12-28T03:49:00;95454.22;;;2.84;53.36
79686;BME280;69153;47.918;11.428;2023-12-28T03:51:26;95454.22;;;2.87;52.98
79686;BME280;69153;47.918;11.428;2023-12-28T03:53:51;95459.09;;;2.85;52.35
79686;BME280;69153;47.918;11.428;2023-12-28T03:56:24;95465.81;;;2.86;52.30
79686;BME280;69153;47.918;11.428;2023-12-28T03:58:51;95466.50;;;2.80;52.57
79686;BME280;69153;47.918;11.428;2023-12-28T04:01:21;95469.50;;;2.82;52.65
79686;BME280;69153;47.918;11.428;2023-12-28T04:03:47;95469.00;;;2.69;53.08
79686;BME280;69153;47.918;11.428;2023-12-28T04:06:13;95468.59;;;2.67;52.44
79686;BME280;69153;47.918;11.428;2023-12-28T04:08:42;95466.75;;;2.68;53.18
79686;BME280;69153;47.918;11.428;2023-12-28T04:11:08;95464.13;;;2.68;52.57
79686;BME280;69153;47.918;11.428;2023-12-28T04:13:35;95476.50;;;2.71;52.86
79686;BME280;69153;47.918;11.428;2023-12-28T04:16:01;95467.91;;;2.70;52.95
79686;BME280;69153;47.918;11.428;2023-12-28T04:18:26;95466.44;;;2.76;52.91
79686;BME280;69153;47.918;11.428;2023-12-28T04:20:52;95460.81;;;2.74;53.17
79686;BME280;69153;47.918;11.428;2023-12-28T04:23:17;95465.28;;;2.70;53.00
79686;BME280;69153;47.918;11.428;2023-12-28T04:25:43;95471.28;;;2.71;52.70
79686;BME280;69153;47.918;11.428;2023-12-28T04:28:08;95464.88;;;2.68;53.31
79686;BME280;69153;47.918;11.428;2023-12-28T04:30:34;95465.88;;;2.57;53.18
79686;BME280;69153;47.918;11.428;2023-12-28T04:33:03;95468.75;;;2.44;53.20
79686;BME280;69153;47.918;11.428;2023-12-28T04:35:28;95471.44;;;2.51;52.53
79686;BME280;69153;47.918;11.428;2023-12-28T04:37:54;95463.63;;;2.55;52.33
79686;BME280;69153;47.918;11.428;2023-12-28T04:40:20;95472.22;;;2.56;52.82
79686;BME280;69153;47.918;11.428;2023-12-28T04:42:46;95469.22;;;2.54;53.25
79686;BME280;69153;47.918;11.428;2023-12-28T04:45:11;95462.03;;;2.47;53.78
79686;BME280;69153;47.918;11.428;2023-12-28T04:47:37;95467.88;;;2.37;53.84
79686;BME280;69153;47.918;11.428;2023-12-28T04:50:03;95482.13;;;2.39;52.90
79686;BME280;69153;47.918;11.428;2023-12-28T04:52:28;95480.72;;;2.45;53.29
79686;BME280;69153;47.918;11.428;2023-12-28T04:54:54;95481.72;;;2.37;53.83
79686;BME280;69153;47.918;11.428;2023-12-28T04:57:20;95479.34;;;2.25;54.10
79686;BME280;69153;47.918;11.428;2023-12-28T04:59:46;95484.25;;;2.30;53.55
79686;BME280;69153;47.918;11.428;2023-12-28T05:02:11;95483.91;;;2.32;53.42
79686;BME280;69153;47.918;11.428;2023-12-28T05:04:37;95493.97;;;2.30;53.32
79686;BME280;69153;47.918;11.428;2023-12-28T05:07:04;95489.16;;;2.35;53.57
79686;BME280;69153;47.918;11.428;2023-12-28T05:09:29;95483.28;;;2.42;53.70
79686;BME280;69153;47.918;11.428;2023-12-28T05:11:55;95487.00;;;2.41;54.48
79686;BME280;69153;47.918;11.428;2023-12-28T05:14:20;95485.88;;;2.42;54.27
79686;BME280;69153;47.918;11.428;2023-12-28T05:16:46;95481.06;;;2.44;54.83
79686;BME280;69153;47.918;11.428;2023-12-28T05:19:11;95483.75;;;2.51;54.41
79686;BME280;69153;47.918;11.428;2023-12-28T05:21:37;95492.41;;;2.55;54.50
79686;BME280;69153;47.918;11.428;2023-12-28T05:24:02;95489.03;;;2.55;54.39
79686;BME280;69153;47.918;11.428;2023-12-28T05:26:28;95490.19;;;2.61;54.29
79686;BME280;69153;47.918;11.428;2023-12-28T05:28:53;95485.38;;;2.63;54.03
79686;BME280;69153;47.918;11.428;2023-12-28T05:31:19;95490.94;;;2.61;54.38
79686;BME280;69153;47.918;11.428;2023-12-28T05:33:44;95496.97;;;2.65;54.03
79686;BME280;69153;47.918;11.428;2023-12-28T05:36:10;95489.91;;;2.66;54.84
79686;BME280;69153;47.918;11.428;2023-12-28T05:38:35;95493.91;;;2.56;54.15
79686;BME280;69153;47.918;11.428;2023-12-28T05:41:00;95491.72;;;2.62;54.38
79686;BME280;69153;47.918;11.428;2023-12-28T05:43:26;95491.72;;;2.62;54.48
79686;BME280;69153;47.918;11.428;2023-12-28T05:45:51;95494.72;;;2.64;54.31
79686;BME280;69153;47.918;11.428;2023-12-28T05:48:17;95492.09;;;2.64;53.65
79686;BME280;69153;47.918;11.428;2023-12-28T05:50:42;95499.59;;;2.65;53.28
79686;BME280;69153;47.918;11.428;2023-12-28T05:53:08;95500.31;;;2.62;52.27
79686;BME280;69153;47.918;11.428;2023-12-28T05:55:41;95498.72;;;2.54;53.07
79686;BME280;69153;47.918;11.428;2023-12-28T05:58:07;95483.19;;;2.35;54.13
79686;BME280;69153;47.918;11.428;2023-12-28T06:00:32;95490.25;;;2.31;54.57
79686;BME280;69153;47.918;11.428;2023-12-28T06:02:58;95485.00;;;2.31;53.48
79686;BME280;69153;47.918;11.428;2023-12-28T06:05:23;95482.81;;;2.33;54.42
79686;BME280;69153;47.918;11.428;2023-12-28T06:07:49;95486.53;;;2.35;54.25
79686;BME280;69153;47.918;11.428;2023-12-28T06:10:14;95488.81;;;2.37;53.84
79686;BME280;69153;47.918;11.428;2023-12-28T06:12:40;95487.69;;;2.38;53.47
79686;BME280;69153;47.918;11.428;2023-12-28T06:15:06;95486.53;;;2.35;53.64
79686;BME280;69153;47.918;11.428;2023-12-28T06:17:31;95485.78;;;2.35;53.94
79686;BME280;69153;47.918;11.428;2023-12-28T06:19:57;95488.72;;;2.30;54.17
79686;BME280;69153;47.918;11.428;2023-12-28T06:22:22;95492.13;;;2.34;53.68
79686;BME280;69153;47.918;11.428;2023-12-28T06:24:53;95494.34;;;2.02;54.20
79686;BME280;69153;47.918;11.428;2023-12-28T06:27:18;95485.00;;;2.01;54.71
79686;BME280;69153;47.918;11.428;2023-12-28T06:29:43;95498.91;;;2.08;53.57
79686;BME280;69153;47.918;11.428;2023-12-28T06:32:09;95494.22;;;2.21;53.45
79686;BME280;69153;47.918;11.428;2023-12-28T06:34:34;95500.88;;;2.15;53.26
79686;BME280;69153;47.918;11.428;2023-12-28T06:37:00;95502.31;;;2.12;53.71
79686;BME280;69153;47.918;11.428;2023-12-28T06:39:26;95497.09;;;2.12;52.91
79686;BME280;69153;47.918;11.428;2023-12-28T06:41:52;95498.47;;;2.03;52.91
79686;BME280;69153;47.918;11.428;2023-12-28T06:44:17;95491.03;;;2.05;53.35
79686;BME280;69153;47.918;11.428;2023-12-28T06:46:43;95486.91;;;2.04;53.54
79686;BME280;69153;47.918;11.428;2023-12-28T06:49:08;95490.53;;;1.96;53.58
79686;BME280;69153;47.918;11.428;2023-12-28T06:51:34;95480.78;;;1.93;52.60
79686;BME280;69153;47.918;11.428;2023-12-28T06:53:59;95485.56;;;1.87;53.01
79686;BME280;69153;47.918;11.428;2023-12-28T06:56:25;95483.81;;;1.95;53.01
79686;BME280;69153;47.918;11.428;2023-12-28T06:58:50;95493.47;;;1.91;53.28
79686;BME280;69153;47.918;11.428;2023-12-28T07:01:16;95481.28;;;2.02;52.26
79686;BME280;69153;47.918;11.428;2023-12-28T07:03:41;95481.56;;;1.97;53.42
79686;BME280;69153;47.918;11.428;2023-12-28T07:06:07;95481.16;;;1.91;52.69
79686;BME280;69153;47.918;11.428;2023-12-28T07:08:34;95481.16;;;1.91;52.80
79686;BME280;69153;47.918;11.428;2023-12-28T07:10:59;95478.94;;;1.93;52.92
79686;BME280;69153;47.918;11.428;2023-12-28T07:13:25;95489.13;;;2.02;53.00
79686;BME280;69153;47.918;11.428;2023-12-28T07:15:51;95492.09;;;2.00;53.32
79686;BME280;69153;47.918;11.428;2023-12-28T07:18:16;95491.38;;;2.03;53.06
79686;BME280;69153;47.918;11.428;2023-12-28T07:20:42;95485.09;;;2.08;53.12
79686;BME280;69153;47.918;11.428;2023-12-28T07:23:08;95485.25;;;2.19;54.17
79686;BME280;69153;47.918;11.428;2023-12-28T07:25:36;95482.66;;;2.22;52.89
79686;BME280;69153;47.918;11.428;2023-12-28T07:28:02;95475.56;;;2.23;53.46
79686;BME280;69153;47.918;11.428;2023-12-28T07:30:28;95480.94;;;2.33;53.11
79686;BME280;69153;47.918;11.428;2023-12-28T07:32:53;95480.19;;;2.33;53.13
79686;BME280;69153;47.918;11.428;2023-12-28T07:35:19;95476.88;;;2.39;53.41
79686;BME280;69153;47.918;11.428;2023-12-28T07:37:44;95476.53;;;2.41;52.74
79686;BME280;69153;47.918;11.428;2023-12-28T07:40:12;95482.13;;;2.39;53.53
79686;BME280;69153;47.918;11.428;2023-12-28T07:42:37;95481.72;;;2.37;53.24
79686;BME280;69153;47.918;11.428;2023-12-28T07:45:03;95485.78;;;2.31;52.62
79686;BME280;69153;47.918;11.428;2023-12-28T07:47:29;95489.50;;;2.34;52.81
79686;BME280;69153;47.918;11.428;2023-12-28T07:49:54;95487.97;;;2.29;52.88
79686;BME280;69153;47.918;11.428;2023-12-28T07:52:20;95483.97;;;2.39;52.56
79686;BME280;69153;47.918;11.428;2023-12-28T07:54:45;95488.19;;;2.47;52.52
79686;BME280;69153;47.918;11.428;2023-12-28T07:57:11;95486.41;;;2.55;53.57
79686;BME280;69153;47.918;11.428;2023-12-28T07:59:36;95493.63;;;2.65;53.11
79686;BME280;69153;47.918;11.428;2023-12-28T08:02:02;95486.06;;;2.93;53.03
79686;BME280;69153;47.918;11.428;2023-12-28T08:04:27;95491.38;;;3.44;51.14
79686;BME280;69153;47.918;11.428;2023-12-28T08:06:52;95490.69;;;4.09;49.98
79686;BME280;69153;47.918;11.428;2023-12-28T08:09:18;95489.09;;;4.84;48.47
79686;BME280;69153;47.918;11.428;2023-12-28T08:11:43;95483.56;;;5.46;47.41
79686;BME280;69153;47.918;11.428;2023-12-28T08:14:09;95482.38;;;6.11;46.31
79686;BME280;69153;47.918;11.428;2023-12-28T08:16:34;95477.31;;;6.63;45.82
79686;BME280;69153;47.918;11.428;2023-12-28T08:19:01;95477.09;;;7.09;44.32
79686;BME280;69153;47.918;11.428;2023-12-28T08:21:26;95484.28;;;7.53;43.90
79686;BME280;69153;47.918;11.428;2023-12-28T08:23:52;95491.19;;;7.88;42.89
79686;BME280;69153;47.918;11.428;2023-12-28T08:26:17;95491.88;;;8.33;42.09
79686;BME280;69153;47.918;11.428;2023-12-28T08:28:42;95498.59;;;8.72;41.57
79686;BME280;69153;47.918;11.428;2023-12-28T08:31:08;95508.78;;;9.04;40.37
79686;BME280;69153;47.918;11.428;2023-12-28T08:33:35;95499.78;;;9.51;39.95
79686;BME280;69153;47.918;11.428;2023-12-28T08:36:08;95510.78;;;9.96;38.71
79686;BME280;69153;47.918;11.428;2023-12-28T08:38:34;95500.56;;;10.61;38.11
79686;BME280;69153;47.918;11.428;2023-12-28T08:41:00;95501.97;;;11.22;37.17
79686;BME280;69153;47.918;11.428;2023-12-28T08:43:25;95511.63;;;11.48;35.92
79686;BME280;69153;47.918;11.428;2023-12-28T08:45:50;95518.50;;;11.62;36.13
79686;BME280;69153;47.918;11.428;2023-12-28T08:48:16;95517.78;;;11.94;35.69
79686;BME280;69153;47.918;11.428;2023-12-28T08:50:41;95512.34;;;12.30;35.30
79686;BME280;69153;47.918;11.428;2023-12-28T08:53:07;95514.47;;;12.64;34.17
79686;BME280;69153;47.918;11.428;2023-12-28T08:55:32;95518.78;;;12.99;33.30
79686;BME280;69153;47.918;11.428;2023-12-28T08:57:59;95518.75;;;13.28;33.29
79686;BME280;69153;47.918;11.428;2023-12-28T09:00:24;95529.63;;;13.46;31.65
79686;BME280;69153;47.918;11.428;2023-12-28T09:02:50;95525.34;;;13.23;32.03
79686;BME280;69153;47.918;11.428;2023-12-28T09:05:17;95522.91;;;12.87;33.09
79686;BME280;69153;47.918;11.428;2023-12-28T09:07:42;95519.50;;;12.87;33.23
79686;BME280;69153;47.918;11.428;2023-12-28T09:10:12;95525.03;;;12.80;33.78
79686;BME280;69153;47.918;11.428;2023-12-28T09:12:38;95519.84;;;12.89;34.06
79686;BME280;69153;47.918;11.428;2023-12-28T09:15:04;95520.47;;;12.80;34.23
79686;BME280;69153;47.918;11.428;2023-12-28T09:17:30;95525.22;;;12.73;34.68
79686;BME280;69153;47.918;11.428;2023-12-28T09:19:56;95521.56;;;12.96;34.08
79686;BME280;69153;47.918;11.428;2023-12-28T09:22:23;95528.66;;;13.40;33.39
79686;BME280;69153;47.918;11.428;2023-12-28T09:24:48;95531.28;;;13.78;33.16
79686;BME280;69153;47.918;11.428;2023-12-28T09:27:14;95528.00;;;13.74;33.13
79686;BME280;69153;47.918;11.428;2023-12-28T09:29:39;95520.00;;;13.87;32.64
79686;BME280;69153;47.918;11.428;2023-12-28T09:32:05;95525.88;;;13.69;33.60
79686;BME280;69153;47.918;11.428;2023-12-28T09:34:30;95522.91;;;13.54;34.27
79686;BME280;69153;47.918;11.428;2023-12-28T09:36:56;95524.81;;;13.54;33.86
79686;BME280;69153;47.918;11.428;2023-12-28T09:39:21;95524.06;;;13.15;34.71
79686;BME280;69153;47.918;11.428;2023-12-28T09:41:53;95521.69;;;13.05;34.03
79686;BME280;69153;47.918;11.428;2023-12-28T09:44:21;95516.13;;;12.99;34.49
79686;BME280;69153;47.918;11.428;2023-12-28T09:46:47;95512.16;;;13.33;32.78
79686;BME280;69153;47.918;11.428;2023-12-28T09:49:13;95511.91;;;13.78;32.86
79686;BME280;69153;47.918;11.428;2023-12-28T09:51:39;95503.13;;;13.90;31.81
79686;BME280;69153;47.918;11.428;2023-12-28T09:54:05;95505.56;;;13.63;31.64
79686;BME280;69153;47.918;11.428;2023-12-28T09:56:32;95497.56;;;13.63;31.45
79686;BME280;69153;47.918;11.428;2023-12-28T09:58:59;95502.25;;;13.58;31.06
79686;BME280;69153;47.918;11.428;2023-12-28T10:01:25;95492.97;;;13.38;31.26
79686;BME280;69153;47.918;11.428;2023-12-28T10:03:50;95476.78;;;12.94;32.33
79686;BME280;69153;47.918;11.428;2023-12-28T10:06:16;95479.19;;;12.76;33.45
79686;BME280;69153;47.918;11.428;2023-12-28T10:08:46;95479.97;;;12.47;32.69
79686;BME280;69153;47.918;11.428;2023-12-28T10:11:15;95476.16;;;12.20;33.00
79686;BME280;69153;47.918;11.428;2023-12-28T10:13:41;95474.19;;;12.07;32.93
79686;BME280;69153;47.918;11.428;2023-12-28T10:16:09;95470.25;;;12.28;32.82
79686;BME280;69153;47.918;11.428;2023-12-28T10:18:34;95465.25;;;12.30;32.61
79686;BME280;69153;47.918;11.428;2023-12-28T10:21:00;95470.00;;;12.64;32.45
79686;BME280;69153;47.918;11.428;2023-12-28T10:23:25;95472.03;;;12.73;31.89
79686;BME280;69153;47.918;11.428;2023-12-28T10:25:51;95473.81;;;13.05;31.66
79686;BME280;69153;47.918;11.428;2023-12-28T10:28:18;95472.75;;;13.15;31.45
79686;BME280;69153;47.918;11.428;2023-12-28T10:30:45;95468.69;;;13.61;31.13
79686;BME280;69153;47.918;11.428;2023-12-28T10:33:13;95456.31;;;13.67;30.49
79686;BME280;69153;47.918;11.428;2023-12-28T10:35:38;95462.53;;;13.99;30.23
79686;BME280;69153;47.918;11.428;2023-12-28T10:38:04;95460.03;;;13.82;30.27
79686;BME280;69153;47.918;11.428;2023-12-28T10:40:30;95461.97;;;14.04;28.51
79686;BME280;69153;47.918;11.428;2023-12-28T10:42:59;95448.22;;;14.05;27.68
79686;BME280;69153;47.918;11.428;2023-12-28T10:45:32;95448.78;;;14.00;28.33
79686;BME280;69153;47.918;11.428;2023-12-28T10:56:24;95428.75;;;14.52;28.14
79686;BME280;69153;47.918;11.428;2023-12-28T10:58:54;95428.91;;;14.36;28.28
79686;BME280;69153;47.918;11.428;2023-12-28T11:01:30;95431.31;;;13.99;28.87
79686;BME280;69153;47.918;11.428;2023-12-28T11:04:12;95421.34;;;13.78;28.66
79686;BME280;69153;47.918;11.428;2023-12-28T11:06:42;95426.31;;;13.54;29.08
79686;BME280;69153;47.918;11.428;2023-12-28T11:09:10;95421.56;;;13.49;29.32
79686;BME280;69153;47.918;11.428;2023-12-28T11:11:37;95430.38;;;13.58;30.06
79686;BME280;69153;47.918;11.428;2023-12-28T11:14:03;95430.47;;;13.55;31.10
79686;BME280;69153;47.918;11.428;2023-12-28T11:16:31;95440.03;;;13.65;29.72
79686;BME280;69153;47.918;11.428;2023-12-28T11:18:58;95431.56;;;13.45;30.56
79686;BME280;69153;47.918;11.428;2023-12-28T11:21:25;95421.69;;;13.33;30.63
79686;BME280;69153;47.918;11.428;2023-12-28T11:23:52;95417.31;;;13.26;31.79
79686;BME280;69153;47.918;11.428;2023-12-28T11:26:21;95426.03;;;13.27;31.69
79686;BME280;69153;47.918;11.428;2023-12-28T11:28:47;95418.81;;;13.14;31.60
79686;BME280;69153;47.918;11.428;2023-12-28T11:31:16;95414.13;;;13.06;30.81
79686;BME280;69153;47.918;11.428;2023-12-28T11:33:51;95411.34;;;12.97;30.90
79686;BME280;69153;47.918;11.428;2023-12-28T11:36:32;95412.19;;;12.81;31.51
79686;BME280;69153;47.918;11.428;2023-12-28T11:39:01;95413.38;;;12.80;31.62
79686;BME280;69153;47.918;11.428;2023-12-28T11:41:27;95413.78;;;12.91;31.67
79686;BME280;69153;47.918;11.428;2023-12-28T11:43:53;95414.53;;;12.92;30.75
79686;BME280;69153;47.918;11.428;2023-12-28T11:46:20;95406.47;;;12.95;30.50
79686;BME280;69153;47.918;11.428;2023-12-28T11:48:46;95400.47;;;12.66;31.30
79686;BME280;69153;47.918;11.428;2023-12-28T11:51:11;95394.16;;;12.34;32.48
79686;BME280;69153;47.918;11.428;2023-12-28T11:53:38;95400.47;;;12.53;32.40
79686;BME280;69153;47.918;11.428;2023-12-28T11:56:03;95402.50;;;12.87;31.80
79686;BME280;69153;47.918;11.428;2023-12-28T11:58:30;95399.00;;;13.03;31.57
79686;BME280;69153;47.918;11.428;2023-12-28T12:00:56;95394.31;;;13.07;31.56
79686;BME280;69153;47.918;11.428;2023-12-28T12:03:24;95394.66;;;12.83;31.67
79686;BME280;69153;47.918;11.428;2023-12-28T12:05:50;95392.16;;;12.51;32.56
79686;BME280;69153;47.918;11.428;2023-12-28T12:08:15;95392.44;;;12.28;32.83
79686;BME280;69153;47.918;11.428;2023-12-28T12:10:41;95385.94;;;12.16;33.22
79686;BME280;69153;47.918;11.428;2023-12-28T12:13:07;95386.41;;;12.40;32.93
79686;BME280;69153;47.918;11.428;2023-12-28T12:15:33;95383.78;;;12.11;33.85
79686;BME280;69153;47.918;11.428;2023-12-28T12:18:00;95382.84;;;12.05;34.66
79686;BME280;69153;47.918;11.428;2023-12-28T12:20:26;95388.66;;;12.00;34.82
79686;BME280;69153;47.918;11.428;2023-12-28T12:22:58;95388.94;;;12.18;34.33
79686;BME280;69153;47.918;11.428;2023-12-28T12:25:24;95384.06;;;12.29;34.36
79686;BME280;69153;47.918;11.428;2023-12-28T12:27:49;95385.34;;;12.37;34.25
79686;BME280;69153;47.918;11.428;2023-12-28T12:30:15;95380.88;;;12.34;34.25
79686;BME280;69153;47.918;11.428;2023-12-28T12:32:41;95374.28;;;12.26;34.10
79686;BME280;69153;47.918;11.428;2023-12-28T12:35:09;95384.91;;;12.26;34.22
79686;BME280;69153;47.918;11.428;2023-12-28T12:37:37;95374.59;;;12.28;34.29
79686;BME280;69153;47.918;11.428;2023-12-28T12:40:03;95375.28;;;12.03;34.75
79686;BME280;69153;47.918;11.428;2023-12-28T12:42:32;95368.16;;;12.00;35.03
79686;BME280;69153;47.918;11.428;2023-12-28T12:44:57;95367.38;;;11.87;35.58
79686;BME280;69153;47.918;11.428;2023-12-28T12:47:23;95367.06;;;11.98;35.60
79686;BME280;69153;47.918;11.428;2023-12-28T12:49:51;95369.22;;;12.03;35.92
79686;BME280;69153;47.918;11.428;2023-12-28T12:52:16;95364.25;;;12.05;36.17
79686;BME280;69153;47.918;11.428;2023-12-28T12:54:42;95368.06;;;12.04;36.15
79686;BME280;69153;47.918;11.428;2023-12-28T12:57:08;95368.81;;;12.04;36.43
79686;BME280;69153;47.918;11.428;2023-12-28T12:59:34;95367.00;;;12.01;36.72
79686;BME280;69153;47.918;11.428;2023-12-28T13:02:00;95363.50;;;12.04;36.80